createdAt,value
2018-12-04T00:00:35.648Z,99080.77
2018-12-04T00:03:09.130Z,99091.73
2018-12-04T00:05:42.078Z,99106.06
2018-12-04T00:08:15.613Z,99138.23
2018-12-04T00:10:48.721Z,99141.77
2018-12-04T00:13:21.616Z,99157.45
2018-12-04T00:15:54.864Z,99175.30
2018-12-04T00:18:27.854Z,99189.42
2018-12-04T00:21:00.771Z,99208.11
2018-12-04T00:23:34.784Z,99199.60
2018-12-04T00:26:07.795Z,99216.26
2018-12-04T00:28:40.818Z,99222.63
2018-12-04T00:31:14.070Z,99228.25
2018-12-04T00:33:47.594Z,99243.59
2018-12-04T00:36:20.644Z,99247.89
2018-12-04T00:38:55.226Z,99253.25
2018-12-04T00:41:28.189Z,99270.97
2018-12-04T00:44:01.196Z,99269.38
2018-12-04T00:46:34.344Z,99271.84
2018-12-04T00:49:08.151Z,99277.20
2018-12-04T00:51:41.453Z,99286.63
2018-12-04T00:54:14.998Z,99291.61
2018-12-04T00:56:47.941Z,99297.97
2018-12-04T00:59:20.928Z,99314.13
2018-12-04T01:01:53.886Z,99315.74
2018-12-04T01:04:27.797Z,99332.06
2018-12-04T01:07:00.733Z,99345.50
2018-12-04T01:09:33.759Z,99356.33
2018-12-04T01:12:07.304Z,99362.66
2018-12-04T01:14:40.335Z,99372.32
2018-12-04T01:17:13.280Z,99376.16
2018-12-04T01:19:46.729Z,99383.27
2018-12-04T01:22:19.655Z,99393.78
2018-12-04T01:24:52.709Z,99389.48
2018-12-04T01:27:26.335Z,99384.14
2018-12-04T01:29:59.442Z,99394.17
2018-12-04T01:32:32.457Z,99411.09
2018-12-04T01:35:07.184Z,99413.87
2018-12-04T01:37:43.910Z,99414.05
2018-12-04T01:40:16.952Z,99424.16
2018-12-04T01:42:50.350Z,99424.41
2018-12-04T01:45:23.305Z,99428.77
2018-12-04T01:47:57.512Z,99436.93
2018-12-04T01:50:32.209Z,99440.10
2018-12-04T01:53:05.396Z,99446.23
2018-12-04T01:55:38.359Z,99453.86
2018-12-04T01:58:12.224Z,99461.27
2018-12-04T02:00:45.408Z,99464.58
2018-12-04T02:03:18.453Z,99472.56
2018-12-04T02:05:51.976Z,99474.09
2018-12-04T02:08:25.296Z,99479.90
2018-12-04T02:10:59.404Z,99481.48
2018-12-04T02:13:35.868Z,99486.45
2018-12-04T02:16:09.402Z,99490.81
2018-12-04T02:18:42.588Z,99489.59
2018-12-04T02:21:16.080Z,99504.27
2018-12-04T02:23:49.184Z,99503.90
2018-12-04T02:26:22.993Z,99515.58
2018-12-04T02:28:56.473Z,99522.03
2018-12-04T02:31:31.942Z,99521.38
2018-12-04T02:34:04.905Z,99527.92
2018-12-04T02:36:38.522Z,99536.56
2018-12-04T02:39:11.557Z,99544.34
2018-12-04T02:41:44.556Z,99548.56
2018-12-04T02:44:19.516Z,99551.31
2018-12-04T02:46:52.553Z,99550.03
2018-12-04T02:49:25.477Z,99552.39
2018-12-04T02:51:59.165Z,99556.38
2018-12-04T02:54:33.057Z,99555.14
2018-12-04T02:57:07.543Z,99556.38
2018-12-04T02:59:41.947Z,99562.20
2018-12-04T03:02:14.930Z,99568.20
2018-12-04T03:04:47.927Z,99578.12
2018-12-04T03:07:21.575Z,99587.19
2018-12-04T03:09:54.768Z,99597.33
2018-12-04T03:12:28.014Z,99591.82
2018-12-04T03:15:03.801Z,99597.75
2018-12-04T03:17:37.413Z,99598.91
2018-12-04T03:20:11.112Z,99602.38
2018-12-04T03:22:44.658Z,99611.55
2018-12-04T03:25:17.495Z,99612.11
2018-12-04T03:27:51.371Z,99627.97
2018-12-04T03:30:24.823Z,99622.92
2018-12-04T03:32:57.760Z,99632.91
2018-12-04T03:35:31.027Z,99641.17
2018-12-04T03:38:05.566Z,99640.95
2018-12-04T03:40:38.840Z,99646.13
2018-12-04T03:43:11.668Z,99644.98
2018-12-04T03:45:48.446Z,99649.38
2018-12-04T03:48:21.427Z,99657.37
2018-12-04T03:50:54.390Z,99662.61
2018-12-04T03:53:27.931Z,99661.17
2018-12-04T03:56:01.794Z,99672.27
2018-12-04T03:58:35.793Z,99673.27
2018-12-04T04:01:09.295Z,99678.66
2018-12-04T04:03:42.432Z,99685.45
2018-12-04T04:06:15.550Z,99687.77
2018-12-04T04:08:49.025Z,99693.44
2018-12-04T04:11:22.095Z,99690.02
2018-12-04T04:13:55.125Z,99694.01
2018-12-04T04:16:29.678Z,99696.70
2018-12-04T04:19:02.797Z,99702.88
2018-12-04T04:21:35.785Z,99701.23
2018-12-04T04:24:09.333Z,99713.30
2018-12-04T04:26:42.704Z,99722.62
2018-12-04T04:29:15.748Z,99729.30
2018-12-04T04:31:50.180Z,99736.08
2018-12-04T04:34:23.161Z,99731.02
2018-12-04T04:36:56.439Z,99741.43
2018-12-04T04:39:29.759Z,99743.13
2018-12-04T04:42:02.821Z,99752.28
2018-12-04T04:44:36.540Z,99764.84
2018-12-04T04:47:10.177Z,99773.91
2018-12-04T04:49:43.121Z,99776.20
2018-12-04T04:52:17.028Z,99793.45
2018-12-04T04:54:50.540Z,99786.18
2018-12-04T04:57:23.601Z,99785.02
2018-12-04T04:59:57.190Z,99783.33
2018-12-04T05:02:30.307Z,99788.02
2018-12-04T05:05:03.612Z,99788.63
2018-12-04T05:07:36.611Z,99796.23
2018-12-04T05:10:13.109Z,99800.09
2018-12-04T05:12:47.885Z,99809.24
2018-12-04T05:15:21.586Z,99812.06
2018-12-04T05:17:55.577Z,99816.36
2018-12-04T05:20:28.754Z,99819.61
2018-12-04T05:23:03.788Z,99827.65
2018-12-04T05:25:39.043Z,99833.50
2018-12-04T05:28:12.185Z,99837.96
2018-12-04T05:30:45.192Z,99840.72
2018-12-04T05:33:18.150Z,99858.02
2018-12-04T05:35:51.700Z,99865.18
2018-12-04T05:38:24.688Z,99867.12
2018-12-04T05:40:57.770Z,99862.33
2018-12-04T05:43:33.526Z,99870.92
2018-12-04T05:46:06.536Z,99874.27
2018-12-04T05:48:39.616Z,99880.88
2018-12-04T05:51:13.077Z,99868.27
2018-12-04T05:53:46.049Z,99875.92
2018-12-04T05:56:19.328Z,99884.73
2018-12-04T05:58:54.481Z,99889.13
2018-12-04T06:01:28.037Z,99888.37
2018-12-04T06:04:01.034Z,99901.08
2018-12-04T06:06:34.156Z,99911.93
2018-12-04T06:09:09.265Z,99921.39
2018-12-04T06:11:42.328Z,99930.59
2018-12-04T06:14:15.294Z,99931.08
2018-12-04T06:16:49.187Z,99935.11
2018-12-04T06:19:22.253Z,99947.73
2018-12-04T06:21:55.334Z,99952.04
2018-12-04T06:24:29.082Z,99959.92
2018-12-04T06:27:02.720Z,99965.20
2018-12-04T06:29:35.898Z,99967.86
2018-12-04T06:32:09.333Z,99977.56
2018-12-04T06:34:42.649Z,99981.23
2018-12-04T06:37:16.717Z,99991.53
2018-12-04T06:39:50.242Z,99995.50
2018-12-04T06:42:23.653Z,100002.09
2018-12-04T06:44:57.050Z,100011.88
2018-12-04T06:47:30.568Z,100014.89
2018-12-04T06:50:06.147Z,100025.21
2018-12-04T06:52:39.543Z,100029.70
2018-12-04T06:55:14.479Z,100033.80
2018-12-04T06:57:58.818Z,100043.53
2018-12-04T07:00:32.773Z,100045.98
2018-12-04T07:03:06.709Z,100050.56
2018-12-04T07:05:40.404Z,100052.56
2018-12-04T07:08:13.323Z,100063.76
2018-12-04T07:10:46.357Z,100070.48
2018-12-04T07:13:20.477Z,100072.05
2018-12-04T07:15:53.585Z,100083.13
2018-12-04T07:18:28.373Z,100085.17
2018-12-04T07:21:02.170Z,100100.05
2018-12-04T07:23:35.300Z,100103.56
2018-12-04T07:26:08.800Z,100107.05
2018-12-04T07:28:44.865Z,100117.16
2018-12-04T07:31:20.726Z,100117.85
2018-12-04T07:33:53.873Z,100125.92
2018-12-04T07:36:27.990Z,100126.53
2018-12-04T07:39:01.068Z,100128.28
2018-12-04T07:41:35.836Z,100142.09
2018-12-04T07:44:09.280Z,100147.77
2018-12-04T07:46:42.225Z,100153.30
2018-12-04T07:49:15.849Z,100161.41
2018-12-04T07:51:51.957Z,100162.06
2018-12-04T07:54:25.398Z,100174.42
2018-12-04T07:57:01.746Z,100177.39
2018-12-04T07:59:35.248Z,100187.52
2018-12-04T08:02:08.618Z,100195.66
2018-12-04T08:04:43.598Z,100206.64
2018-12-04T08:07:18.080Z,100207.64
2018-12-04T08:09:51.237Z,100214.26
2018-12-04T08:12:24.192Z,100218.42
2018-12-04T08:14:58.212Z,100222.58
2018-12-04T08:17:32.078Z,100231.47
2018-12-04T08:20:07.132Z,100232.95
2018-12-04T08:22:43.048Z,100237.27
2018-12-04T08:25:16.372Z,100237.28
2018-12-04T08:27:49.604Z,100246.54
2018-12-04T08:30:23.266Z,100252.33
2018-12-04T08:32:56.241Z,100255.97
2018-12-04T08:35:32.773Z,100262.09
2018-12-04T08:38:07.497Z,100267.20
2018-12-04T08:40:40.758Z,100266.88
2018-12-04T08:43:13.757Z,100273.59
2018-12-04T08:45:48.187Z,100277.95
2018-12-04T08:48:22.168Z,100281.84
2018-12-04T08:50:55.212Z,100286.80
2018-12-04T08:53:31.620Z,100293.64
2018-12-04T08:56:06.438Z,100297.23
2018-12-04T08:58:39.511Z,100306.14
2018-12-04T09:01:14.624Z,100311.30
2018-12-04T09:03:49.148Z,100320.78
2018-12-04T09:06:23.725Z,100322.02
2018-12-04T09:08:59.430Z,100326.94
2018-12-04T09:11:33.800Z,100333.89
2018-12-04T09:14:07.362Z,100340.69
2018-12-04T09:16:41.262Z,100347.38
2018-12-04T09:19:14.481Z,100354.44
2018-12-04T09:21:47.374Z,100365.67
2018-12-04T09:24:21.795Z,100368.83
2018-12-04T09:26:56.404Z,100376.86
2018-12-04T09:29:32.692Z,100382.45
2018-12-04T09:32:06.895Z,100388.18
2018-12-04T09:34:40.301Z,100393.27
2018-12-04T09:37:14.021Z,100400.80
2018-12-04T09:39:48.440Z,100404.40
2018-12-04T09:42:21.714Z,100415.52
2018-12-04T09:44:54.777Z,100410.73
2018-12-04T09:47:28.435Z,100416.54
2018-12-04T09:50:01.929Z,100412.57
2018-12-04T09:52:36.101Z,100420.84
2018-12-04T09:55:12.366Z,100429.25
2018-12-04T09:57:46.892Z,100426.65
2018-12-04T10:00:20.945Z,100429.60
2018-12-04T10:02:56.676Z,100439.97
2018-12-04T10:05:30.454Z,100444.14
2018-12-04T10:08:04.391Z,100452.22
2018-12-04T10:10:41.806Z,100453.36
2018-12-04T10:13:17.496Z,100457.34
2018-12-04T10:15:51.641Z,100454.42
2018-12-04T10:18:29.678Z,100454.98
2018-12-04T10:21:07.377Z,100458.75
2018-12-04T10:23:40.344Z,100462.25
2018-12-04T10:26:14.921Z,100465.02
2018-12-04T10:28:49.016Z,100464.52
2018-12-04T10:31:23.895Z,100463.42
2018-12-04T10:33:59.173Z,100462.97
2018-12-04T10:36:32.149Z,100460.87
2018-12-04T10:39:07.840Z,100460.01
2018-12-04T10:41:41.209Z,100460.36
2018-12-04T10:44:16.215Z,100464.41
2018-12-04T10:46:49.919Z,100473.94
2018-12-04T10:49:25.381Z,100470.87
2018-12-04T10:51:59.918Z,100474.54
2018-12-04T10:54:34.192Z,100481.56
2018-12-04T10:57:09.892Z,100477.98
2018-12-04T10:59:46.397Z,100474.64
2018-12-04T11:02:24.601Z,100482.92
2018-12-04T11:04:58.645Z,100481.14
2018-12-04T11:07:32.792Z,100491.37
2018-12-04T11:10:06.568Z,100494.66
2018-12-04T11:12:39.633Z,100501.63
2018-12-04T11:15:16.105Z,100504.83
2018-12-04T11:17:49.097Z,100506.31
2018-12-04T11:20:22.272Z,100500.39
2018-12-04T11:22:56.115Z,100506.28
2018-12-04T11:25:29.288Z,100505.81
2018-12-04T11:28:02.429Z,100506.32
2018-12-04T11:30:36.865Z,100514.20
2018-12-04T11:33:09.873Z,100518.98
2018-12-04T11:35:42.820Z,100517.70
2018-12-04T11:38:17.566Z,100523.16
2018-12-04T11:40:52.217Z,100533.07
2018-12-04T11:43:25.531Z,100528.66
2018-12-04T11:46:00.774Z,100528.72
2018-12-04T11:48:37.705Z,100537.09
2018-12-04T11:51:11.387Z,100536.22
2018-12-04T11:53:44.694Z,100540.33
2018-12-04T11:56:17.777Z,100553.16
2018-12-04T11:58:51.219Z,100548.70
2018-12-04T12:01:28.067Z,100546.38
2018-12-04T12:04:01.275Z,100545.73
2018-12-04T12:06:35.327Z,100543.48
2018-12-04T12:09:11.882Z,100546.81
2018-12-04T12:11:44.977Z,100547.85
2018-12-04T12:14:18.196Z,100545.70
2018-12-04T12:16:52.841Z,100547.34
2018-12-04T12:19:26.061Z,100546.84
2018-12-04T12:22:00.530Z,100554.71
2018-12-04T12:24:34.184Z,100556.93
2018-12-04T12:27:07.176Z,100556.37
2018-12-04T12:29:43.590Z,100561.94
2018-12-04T12:32:17.027Z,100555.44
2018-12-04T12:34:50.845Z,100564.05
2018-12-04T12:37:24.585Z,100562.30
2018-12-04T12:39:57.661Z,100572.05
2018-12-04T12:42:31.385Z,100582.70
2018-12-04T12:45:08.246Z,100584.45
2018-12-04T12:47:41.222Z,100581.48
2018-12-04T12:50:16.583Z,100577.99
2018-12-04T12:52:49.678Z,100589.41
2018-12-04T12:55:23.243Z,100590.44
2018-12-04T12:57:55.497Z,100594.52
2018-12-04T13:00:28.531Z,100594.52
2018-12-04T13:03:01.976Z,100598.75
2018-12-04T13:05:35.634Z,100607.24
2018-12-04T13:08:10.087Z,100615.29
2018-12-04T13:10:45.385Z,100614.66
2018-12-04T13:13:18.982Z,100617.91
2018-12-04T13:15:56.510Z,100621.20
2018-12-04T13:18:29.670Z,100624.34
2018-12-04T13:21:05.118Z,100620.48
2018-12-04T13:23:39.274Z,100626.83
2018-12-04T13:26:14.514Z,100628.27
2018-12-04T13:28:48.677Z,100633.47
2018-12-04T13:31:24.971Z,100630.16
2018-12-04T13:33:59.252Z,100639.88
2018-12-04T13:36:37.407Z,100644.98
2018-12-04T13:39:18.816Z,100653.64
2018-12-04T13:41:53.301Z,100658.92
2018-12-04T13:44:29.127Z,100663.45
2018-12-04T13:47:03.802Z,100664.36
2018-12-04T13:49:39.244Z,100665.55
2018-12-04T13:52:16.742Z,100657.25
2018-12-04T13:54:51.642Z,100666.59
2018-12-04T13:57:27.049Z,100666.77
2018-12-04T14:00:07.758Z,100670.30
2018-12-04T14:02:43.406Z,100680.87
2018-12-04T14:05:20.539Z,100684.38
2018-12-04T14:07:54.323Z,100682.28
2018-12-04T14:10:29.381Z,100689.98
2018-12-04T14:13:03.586Z,100694.19
2018-12-04T14:15:36.699Z,100694.34
2018-12-04T14:18:10.354Z,100697.73
2018-12-04T14:21:05.449Z,100702.98
2018-12-04T14:23:41.476Z,100706.62
2018-12-04T14:26:14.861Z,100712.41
2018-12-04T14:28:48.448Z,100713.78
2018-12-04T14:31:25.735Z,100710.97
2018-12-04T14:34:01.107Z,100715.06
2018-12-04T14:36:38.619Z,100718.22
2018-12-04T14:39:13.153Z,100717.36
2018-12-04T14:41:46.231Z,100717.63
2018-12-04T14:44:25.441Z,100719.48
2018-12-04T14:47:01.456Z,100723.48
2018-12-04T14:49:36.955Z,100728.14
2018-12-04T14:52:11.945Z,100733.59
2018-12-04T14:54:47.196Z,100739.05
2018-12-04T14:57:20.862Z,100746.16
2018-12-04T15:02:56.599Z,100746.13
2018-12-04T15:05:30.727Z,100742.69
2018-12-04T15:08:05.044Z,100752.74
2018-12-04T15:10:40.703Z,100755.02
2018-12-04T15:13:18.698Z,100762.81
2018-12-04T15:15:54.349Z,100760.38
2018-12-04T15:18:29.659Z,100771.66
2018-12-04T15:21:03.566Z,100775.08
2018-12-04T15:23:38.420Z,100785.36
2018-12-04T15:26:12.785Z,100783.09
2018-12-04T15:28:46.456Z,100791.48
2018-12-04T15:31:19.572Z,100792.94
2018-12-04T15:33:52.781Z,100794.53
2018-12-04T15:36:26.694Z,100806.32
2018-12-04T15:39:06.899Z,100813.53
2018-12-04T15:41:46.176Z,100818.09
2018-12-04T15:44:21.554Z,100821.17
2018-12-04T15:46:57.444Z,100824.92
2018-12-04T15:49:33.536Z,100831.38
2018-12-04T15:52:07.589Z,100831.21
2018-12-04T15:54:44.229Z,100835.06
2018-12-04T15:57:20.346Z,100831.95
2018-12-04T15:59:55.290Z,100835.20
2018-12-04T16:02:30.315Z,100842.02
2018-12-04T16:05:08.497Z,100841.29
2018-12-04T16:07:42.627Z,100847.84
2018-12-04T16:10:17.358Z,100850.61
2018-12-04T16:12:51.458Z,100850.28
2018-12-04T16:15:29.179Z,100846.87
2018-12-04T16:18:02.377Z,100852.92
2018-12-04T16:20:35.548Z,100855.64
2018-12-04T16:23:09.479Z,100859.72
2018-12-04T16:25:42.750Z,100857.52
2018-12-04T16:28:17.564Z,100862.52
2018-12-04T16:30:52.130Z,100874.11
2018-12-04T16:33:29.651Z,100872.72
2018-12-04T16:36:04.868Z,100876.97
2018-12-04T16:38:39.355Z,100879.16
2018-12-04T16:41:17.107Z,100879.23
2018-12-04T16:43:50.781Z,100886.57
2018-12-04T16:46:26.544Z,100885.63
2018-12-04T16:48:59.746Z,100888.27
2018-12-04T16:51:34.013Z,100886.56
2018-12-04T16:54:11.310Z,100885.28
2018-12-04T16:56:45.180Z,100886.36
2018-12-04T16:59:18.437Z,100881.74
2018-12-04T17:01:55.541Z,100881.30
2018-12-04T17:04:28.782Z,100880.18
2018-12-04T17:07:03.129Z,100880.52
2018-12-04T17:09:37.980Z,100880.73
2018-12-04T17:12:13.877Z,100882.37
2018-12-04T17:14:47.730Z,100871.79
2018-12-04T17:17:24.916Z,100877.29
2018-12-04T17:20:00.545Z,100885.06
2018-12-04T17:22:35.094Z,100889.36
2018-12-04T17:25:25.054Z,100893.67
2018-12-04T17:27:59.565Z,100895.48
2018-12-04T17:30:35.742Z,100897.84
2018-12-04T17:33:11.396Z,100899.20
2018-12-04T17:35:46.382Z,100906.67
2018-12-04T17:38:20.301Z,100909.58
2018-12-04T17:40:53.490Z,100909.09
2018-12-04T17:43:27.778Z,100912.25
2018-12-04T17:46:01.132Z,100914.03
2018-12-04T17:48:36.872Z,100915.41
2018-12-04T17:51:13.242Z,100917.67
2018-12-04T17:53:46.494Z,100914.84
2018-12-04T17:56:21.229Z,100915.87
2018-12-04T17:58:56.950Z,100916.01
2018-12-04T18:01:31.392Z,100924.53
2018-12-04T18:04:06.374Z,100926.59
2018-12-04T18:06:42.877Z,100924.38
2018-12-04T18:09:20.929Z,100926.91
2018-12-04T18:11:58.190Z,100930.92
2018-12-04T18:14:35.494Z,100938.97
2018-12-04T18:17:10.574Z,100934.66
2018-12-04T18:19:49.336Z,100933.51
2018-12-04T18:22:22.719Z,100936.63
2018-12-04T18:24:59.211Z,100940.89
2018-12-04T18:27:33.847Z,100939.17
2018-12-04T18:30:10.031Z,100939.97
2018-12-04T18:32:48.460Z,100938.89
2018-12-04T18:35:23.219Z,100938.76
2018-12-04T18:37:58.948Z,100943.13
2018-12-04T18:40:40.328Z,100945.78
2018-12-04T18:43:13.882Z,100947.98
2018-12-04T18:45:47.185Z,100950.34
2018-12-04T18:48:20.590Z,100953.09
2018-12-04T18:50:53.795Z,100960.17
2018-12-04T18:53:29.322Z,100971.10
2018-12-04T18:56:03.296Z,100971.50
2018-12-04T18:58:37.251Z,100967.21
2018-12-04T19:01:11.378Z,100966.59
2018-12-04T19:03:44.492Z,100963.19
2018-12-04T19:06:17.988Z,100965.67
2018-12-04T19:08:52.056Z,100967.77
2018-12-04T19:11:25.139Z,100969.02
2018-12-04T19:14:00.863Z,100978.51
2018-12-04T19:16:33.871Z,100984.31
2018-12-04T19:19:11.040Z,100983.82
2018-12-04T19:21:44.922Z,100996.11
2018-12-04T19:24:23.951Z,100993.37
2018-12-04T19:27:09.724Z,100993.78
2018-12-04T19:29:59.845Z,100986.67
2018-12-04T19:32:38.717Z,100995.45
2018-12-04T19:35:14.802Z,100994.38
2018-12-04T19:37:49.858Z,100998.59
2018-12-04T19:40:25.316Z,101000.19
2018-12-04T19:43:02.141Z,101003.41
2018-12-04T19:45:35.783Z,101000.91
2018-12-04T19:48:10.682Z,100999.69
2018-12-04T19:50:47.087Z,101001.53
2018-12-04T19:53:21.190Z,101010.35
2018-12-04T19:55:56.262Z,101013.91
2018-12-04T19:58:29.853Z,101018.41
2018-12-04T20:01:04.550Z,101016.13
2018-12-04T20:03:38.102Z,101016.47
2018-12-04T20:06:11.400Z,101026.56
2018-12-04T20:08:54.987Z,101030.72
2018-12-04T20:11:28.246Z,101023.81
2018-12-04T20:14:01.385Z,101023.86
2018-12-04T20:16:36.679Z,101034.16
2018-12-04T20:19:10.821Z,101036.94
2018-12-04T20:21:47.101Z,101030.03
2018-12-04T20:24:23.591Z,101032.83
2018-12-04T20:26:57.749Z,101035.03
2018-12-04T20:29:31.870Z,101039.95
2018-12-04T20:32:07.694Z,101045.93
2018-12-04T20:34:42.316Z,101049.30
2018-12-04T20:37:18.471Z,101052.13
2018-12-04T20:39:53.594Z,101060.28
2018-12-04T20:42:28.814Z,101060.96
2018-12-04T20:45:06.224Z,101061.71
2018-12-04T20:47:41.115Z,101063.00
2018-12-04T20:50:14.734Z,101066.98
2018-12-04T20:52:49.501Z,101074.30
2018-12-04T20:55:23.806Z,101078.39
2018-12-04T20:57:58.407Z,101077.01
2018-12-04T21:00:32.671Z,101069.56
2018-12-04T21:03:08.633Z,101075.13
2018-12-04T21:05:44.780Z,101071.75
2018-12-04T21:08:20.220Z,101076.78
2018-12-04T21:10:56.215Z,101071.23
2018-12-04T21:13:29.998Z,101074.50
2018-12-04T21:16:03.960Z,101073.12
2018-12-04T21:18:39.727Z,101075.07
2018-12-04T21:21:13.726Z,101076.05
2018-12-04T21:23:48.304Z,101079.51
2018-12-04T21:26:21.552Z,101075.35
2018-12-04T21:29:01.949Z,101080.66
2018-12-04T21:31:41.618Z,101075.07
2018-12-04T21:34:20.474Z,101075.17
2018-12-04T21:37:01.744Z,101068.02
2018-12-04T21:39:36.479Z,101061.88
2018-12-04T21:42:18.051Z,101070.97
2018-12-04T21:44:57.357Z,101072.29
2018-12-04T21:47:38.631Z,101067.18
2018-12-04T21:50:13.411Z,101072.76
2018-12-04T21:52:48.773Z,101072.17
2018-12-04T21:55:24.341Z,101075.51
2018-12-04T21:57:57.333Z,101078.56
2018-12-04T22:00:32.364Z,101078.01
2018-12-04T22:03:08.554Z,101070.79
2018-12-04T22:05:44.608Z,101072.59
2018-12-04T22:08:18.688Z,101071.94
2018-12-04T22:10:52.337Z,101082.73
2018-12-04T22:13:25.713Z,101083.69
2018-12-04T22:16:03.808Z,101081.55
2018-12-04T22:18:37.316Z,101082.68
2018-12-04T22:21:10.613Z,101079.13
2018-12-04T22:23:43.735Z,101075.49
2018-12-04T22:26:17.243Z,101078.77
2018-12-04T22:28:50.381Z,101080.34
2018-12-04T22:31:23.518Z,101077.42
2018-12-04T22:33:57.138Z,101072.88
2018-12-04T22:36:32.479Z,101077.30
2018-12-04T22:39:10.592Z,101084.97
2018-12-04T22:41:44.542Z,101084.04
2018-12-04T22:44:18.277Z,101087.08
2018-12-04T22:46:52.770Z,101084.80
2018-12-04T22:49:26.273Z,101089.52
2018-12-04T22:52:01.251Z,101086.46
2018-12-04T22:54:34.405Z,101084.02
2018-12-04T22:57:08.962Z,101089.88
2018-12-04T22:59:42.005Z,101091.55
2018-12-04T23:02:16.897Z,101094.34
2018-12-04T23:04:51.402Z,101090.97
2018-12-04T23:07:24.793Z,101082.89
2018-12-04T23:09:57.806Z,101081.05
2018-12-04T23:12:31.357Z,101079.07
2018-12-04T23:15:06.230Z,101077.13
2018-12-04T23:17:42.616Z,101077.94
2018-12-04T23:20:16.101Z,101079.55
2018-12-04T23:22:50.130Z,101076.60
2018-12-04T23:25:23.042Z,101083.50
2018-12-04T23:27:57.893Z,101079.38
2018-12-04T23:30:30.894Z,101080.23
2018-12-04T23:33:05.624Z,101085.09
2018-12-04T23:35:39.353Z,101084.59
2018-12-04T23:38:12.728Z,101082.29
2018-12-04T23:40:45.983Z,101081.59
2018-12-04T23:43:19.258Z,101080.36
2018-12-04T23:45:52.551Z,101079.18
2018-12-04T23:48:25.692Z,101073.58
2018-12-04T23:50:59.079Z,101072.08
2018-12-04T23:53:32.259Z,101062.23
2018-12-04T23:56:05.348Z,101060.98
2018-12-04T23:58:38.832Z,101056.80
